Time;durP1;ratioP1;P1;durP2;ratioP2;P2;SDS_P1;SDS_P2;PMS_P1;PMS_P2;Temp;Humidity;BMP_temperature;BMP_pressure;BME280_temperature;BME280_humidity;BME280_pressure;Samples;Min_cycle;Max_cycle;Signal;HPM_P1;HPM_P2
2022/03/17 00:00:11;;;;;;;37.15;23.90;;;;;;;3.02;100.00;102609.28;5052968;28;20159;-44
2022/03/17 00:02:37;;;;;;;32.47;21.95;;;;;;;3.03;100.00;102600.47;5052587;28;20204;-44
2022/03/17 00:05:05;;;;;;;36.35;23.88;;;;;;;2.99;100.00;102597.72;5052228;28;20529;-44
2022/03/17 00:07:30;;;;;;;36.00;23.38;;;;;;;2.99;100.00;102584.47;5052981;28;20272;-44
2022/03/17 00:09:56;;;;;;;33.17;22.40;;;;;;;3.00;100.00;102575.69;5052728;28;20634;-43
2022/03/17 00:12:22;;;;;;;33.25;23.45;;;;;;;3.02;100.00;102587.22;5052506;28;20214;-41
2022/03/17 00:14:47;;;;;;;32.08;22.35;;;;;;;2.99;100.00;102571.25;5052778;28;20580;-45
2022/03/17 00:17:13;;;;;;;33.13;23.35;;;;;;;3.05;100.00;102571.38;5052286;28;20586;-48
2022/03/17 00:19:39;;;;;;;34.70;22.42;;;;;;;3.03;100.00;102575.75;5051464;28;20481;-44
2022/03/17 00:22:09;;;;;;;35.63;22.77;;;;;;;3.07;100.00;102569.66;5052472;28;20270;-44
2022/03/17 00:24:36;;;;;;;34.95;22.80;;;;;;;3.01;100.00;102577.47;5051721;28;20543;-44
2022/03/17 00:27:05;;;;;;;33.17;22.73;;;;;;;3.07;100.00;102567.88;5052558;28;20198;-44
2022/03/17 00:29:33;;;;;;;31.83;22.70;;;;;;;3.08;100.00;102567.03;5052544;28;20211;-42
2022/03/17 00:31:58;;;;;;;35.28;22.95;;;;;;;3.06;100.00;102574.06;5052467;28;20167;-45
2022/03/17 00:34:24;;;;;;;36.90;24.40;;;;;;;3.04;100.00;102561.63;5052050;28;20195;-47
2022/03/17 00:36:50;;;;;;;38.63;23.55;;;;;;;3.08;100.00;102568.78;5052495;28;20724;-45
2022/03/17 00:39:16;;;;;;;34.70;22.35;;;;;;;3.06;100.00;102554.59;5052308;28;20164;-46
2022/03/17 00:41:43;;;;;;;34.70;22.25;;;;;;;3.05;100.00;102556.38;5051927;28;20557;-44
2022/03/17 00:44:09;;;;;;;36.33;23.33;;;;;;;3.08;100.00;102564.41;5051922;28;20183;-43
2022/03/17 00:46:36;;;;;;;37.33;23.95;;;;;;;3.14;100.00;102560.97;5051828;28;20223;-43
2022/03/17 00:49:01;;;;;;;34.78;23.77;;;;;;;3.21;100.00;102554.03;5051795;28;20575;-46
2022/03/17 00:51:27;;;;;;;36.00;23.23;;;;;;;3.27;100.00;102560.34;5052421;28;20171;-44
2022/03/17 00:53:52;;;;;;;32.50;22.95;;;;;;;3.25;100.00;102551.47;5050069;28;20754;-49
2022/03/17 00:56:17;;;;;;;30.75;23.00;;;;;;;3.26;100.00;102558.56;5050883;28;20302;-44
2022/03/17 00:58:48;;;;;;;33.75;23.77;;;;;;;3.28;100.00;102553.31;5051654;28;20501;-47
2022/03/17 01:01:17;;;;;;;32.17;22.10;;;;;;;3.34;100.00;102536.63;5051579;28;20552;-44
2022/03/17 01:03:44;;;;;;;33.05;23.42;;;;;;;3.35;100.00;102539.31;5047196;28;20713;-44
2022/03/17 01:06:10;;;;;;;30.80;23.05;;;;;;;3.35;100.00;102549.03;5051700;28;20174;-45
2022/03/17 01:08:36;;;;;;;31.80;22.35;;;;;;;3.39;100.00;102553.50;5051768;28;20605;-47
2022/03/17 01:11:02;;;;;;;31.73;22.88;;;;;;;3.41;100.00;102557.97;5051515;28;20237;-44
2022/03/17 01:13:27;;;;;;;33.50;22.05;;;;;;;3.45;100.00;102543.00;5051365;28;20191;-46
2022/03/17 01:15:53;;;;;;;31.20;22.10;;;;;;;3.49;100.00;102540.44;5051322;28;20167;-42
2022/03/17 01:18:21;;;;;;;30.27;22.75;;;;;;;3.55;100.00;102550.28;5051496;28;20553;-41
2022/03/17 01:20:47;;;;;;;32.53;22.60;;;;;;;3.57;100.00;102531.78;5051854;28;20167;-41
2022/03/17 01:23:13;;;;;;;33.28;21.95;;;;;;;3.58;100.00;102533.53;5051049;28;20302;-41
2022/03/17 01:25:38;;;;;;;30.52;22.90;;;;;;;3.55;100.00;102529.09;5051459;28;20278;-42
2022/03/17 01:28:04;;;;;;;32.60;22.45;;;;;;;3.64;100.00;102538.97;5051477;28;20207;-43
2022/03/17 01:30:29;;;;;;;33.55;22.20;;;;;;;3.66;100.00;102531.94;5051001;28;20167;-42
2022/03/17 01:32:55;;;;;;;33.65;22.77;;;;;;;3.66;100.00;102530.16;5051052;28;20290;-43
2022/03/17 01:35:20;;;;;;;30.30;22.75;;;;;;;3.62;100.00;102525.66;5050655;28;20172;-44
2022/03/17 01:37:46;;;;;;;31.38;23.02;;;;;;;3.64;100.00;102515.09;5051576;28;20187;-42
2022/03/17 01:40:11;;;;;;;33.35;23.05;;;;;;;3.65;100.00;102508.91;5050998;28;20212;-41
2022/03/17 01:42:39;;;;;;;32.13;22.75;;;;;;;3.63;100.00;102508.91;5050643;28;20261;-45
2022/03/17 01:45:06;;;;;;;33.85;23.13;;;;;;;3.66;100.00;102510.72;5050832;28;20313;-42
2022/03/17 01:47:33;;;;;;;32.97;23.98;;;;;;;3.67;100.00;102502.81;5050783;28;20626;-43
2022/03/17 01:50:06;;;;;;;30.70;23.00;;;;;;;3.64;100.00;102502.72;5051233;28;20233;-48
2022/03/17 01:52:32;;;;;;;33.60;23.33;;;;;;;3.65;100.00;102483.34;5050336;28;20487;-44
2022/03/17 01:54:58;;;;;;;34.42;24.33;;;;;;;3.66;100.00;102490.41;5050801;28;20168;-45
2022/03/17 01:57:24;;;;;;;36.55;24.38;;;;;;;3.64;100.00;102497.44;5050981;28;20159;-45
2022/03/17 01:59:51;;;;;;;31.73;23.83;;;;;;;3.67;100.00;102504.53;5050548;28;20266;-43
2022/03/17 02:02:17;;;;;;;34.85;24.83;;;;;;;3.69;100.00;102498.41;5050346;28;20176;-41
2022/03/17 02:04:43;;;;;;;35.80;25.38;;;;;;;3.64;100.00;102485.94;5050541;28;20747;-44
2022/03/17 02:07:11;;;;;;;35.25;24.35;;;;;;;3.62;100.00;102477.06;5050527;28;20571;-43
2022/03/17 02:09:37;;;;;;;37.85;25.10;;;;;;;3.61;100.00;102488.56;5051098;28;20167;-43
2022/03/17 02:14:51;;;;;;;36.78;25.05;;;;;;;3.54;100.00;102476.94;5050785;28;20187;-44
2022/03/17 02:17:18;;;;;;;35.38;24.90;;;;;;;3.57;100.00;102473.47;5050830;28;20181;-43
2022/03/17 02:19:44;;;;;;;37.40;26.40;;;;;;;3.54;100.00;102479.56;5038706;28;20665;-44
2022/03/17 02:22:12;;;;;;;37.28;25.80;;;;;;;3.58;100.00;102469.94;5046240;28;20191;-43
2022/03/17 02:27:25;;;;;;;42.55;27.23;;;;;;;3.59;100.00;102454.06;5046718;28;20207;-43
2022/03/17 02:29:51;;;;;;;39.50;26.55;;;;;;;3.56;100.00;102454.00;5049901;28;20167;-43
2022/03/17 02:32:17;;;;;;;38.80;27.02;;;;;;;3.55;100.00;102449.56;5050459;28;20686;-42
2022/03/17 02:34:44;;;;;;;42.05;27.70;;;;;;;3.54;100.00;102458.38;5045871;28;20298;-42
2022/03/17 02:37:12;;;;;;;43.35;28.98;;;;;;;3.51;100.00;102437.13;5050706;28;20176;-43
2022/03/17 02:39:38;;;;;;;41.88;29.00;;;;;;;3.55;100.00;102431.03;5050456;28;20254;-45
2022/03/17 02:42:05;;;;;;;43.88;29.40;;;;;;;3.56;100.00;102421.31;5050231;28;20268;-43
2022/03/17 02:44:32;;;;;;;43.70;29.40;;;;;;;3.55;100.00;102414.25;5050421;28;20329;-42
2022/03/17 02:46:57;;;;;;;46.83;30.70;;;;;;;3.53;100.00;102424.81;5049857;28;20308;-43
2022/03/17 02:49:23;;;;;;;43.33;29.85;;;;;;;3.58;100.00;102427.53;5050310;28;20191;-43
2022/03/17 02:51:49;;;;;;;43.15;29.77;;;;;;;3.59;100.00;102421.38;5050122;28;20174;-42
2022/03/17 02:54:14;;;;;;;45.88;29.98;;;;;;;3.55;100.00;102414.25;5050262;28;20580;-44
2022/03/17 02:56:40;;;;;;;44.90;30.05;;;;;;;3.62;100.00;102410.81;5050549;28;20209;-44
2022/03/17 02:59:05;;;;;;;46.47;30.73;;;;;;;3.58;100.00;102406.31;5048979;28;20171;-42
2022/03/17 03:01:30;;;;;;;47.63;31.23;;;;;;;3.59;100.00;102386.94;5050174;28;20198;-42
2022/03/17 03:03:56;;;;;;;48.17;31.67;;;;;;;3.59;100.00;102386.94;5050199;28;20217;-44
2022/03/17 03:06:21;;;;;;;45.25;31.27;;;;;;;3.61;100.00;102385.19;5050640;28;20189;-40
2022/03/17 03:08:47;;;;;;;46.05;31.52;;;;;;;3.63;100.00;102401.97;5050601;28;20203;-40
2022/03/17 03:11:13;;;;;;;49.90;32.05;;;;;;;3.64;100.00;102394.06;5049690;28;20209;-43
2022/03/17 03:13:38;;;;;;;50.60;32.30;;;;;;;3.68;100.00;102387.94;5050044;28;20209;-44
2022/03/17 03:16:04;;;;;;;47.03;31.73;;;;;;;3.67;100.00;102378.22;5049681;28;20262;-40
2022/03/17 03:18:29;;;;;;;48.47;31.90;;;;;;;3.68;100.00;102368.50;5050346;28;20202;-42
2022/03/17 03:20:55;;;;;;;48.00;31.20;;;;;;;3.68;100.00;102371.16;5050097;28;20656;-42
2022/03/17 03:23:20;;;;;;;47.30;32.83;;;;;;;3.70;100.00;102387.97;5049518;28;20678;-41
2022/03/17 03:25:45;;;;;;;51.60;33.80;;;;;;;3.70;100.00;102380.91;5050019;28;20257;-45
2022/03/17 03:28:11;;;;;;;50.08;31.92;;;;;;;3.72;100.00;102381.84;5049813;28;20199;-42
2022/03/17 03:30:38;;;;;;;44.50;31.25;;;;;;;3.77;100.00;102370.41;5049310;28;20218;-42
2022/03/17 03:33:05;;;;;;;48.20;33.45;;;;;;;3.80;100.00;102363.38;5044148;28;20195;-42
2022/03/17 03:38:15;;;;;;;49.97;33.58;;;;;;;3.84;100.00;102366.97;5050149;28;20160;-42
2022/03/17 03:40:40;;;;;;;47.25;31.95;;;;;;;3.82;100.00;102368.69;5049847;28;20536;-43
2022/03/17 03:43:06;;;;;;;46.17;30.85;;;;;;;3.84;100.00;102356.38;5049681;28;20222;-44
2022/03/17 03:45:32;;;;;;;46.15;31.73;;;;;;;3.85;100.00;102356.41;5049733;28;20590;-41
2022/03/17 03:47:57;;;;;;;43.92;30.73;;;;;;;3.85;100.00;102355.50;5049897;28;20231;-41
2022/03/17 03:50:22;;;;;;;46.25;31.92;;;;;;;3.96;100.00;102359.19;5049561;28;20184;-44
2022/03/17 03:52:48;;;;;;;45.65;32.53;;;;;;;4.01;100.00;102360.13;5049648;28;20509;-42
2022/03/17 03:55:13;;;;;;;46.95;33.00;;;;;;;4.00;100.00;102357.47;5039516;28;20187;-39
2022/03/17 03:57:39;;;;;;;44.67;31.25;;;;;;;4.04;100.00;102348.69;5049332;28;20259;-40
2022/03/17 04:02:46;;;;;;;42.33;29.80;;;;;;;4.09;100.00;102347.00;5053114;28;20237;-41
2022/03/17 04:05:12;;;;;;;47.45;31.77;;;;;;;4.07;100.00;102338.13;5053300;28;20541;-41
2022/03/17 04:07:37;;;;;;;43.25;30.83;;;;;;;4.07;100.00;102333.72;5053668;28;20614;-44
2022/03/17 04:10:05;;;;;;;50.15;30.75;;;;;;;4.10;100.00;102333.72;5053172;28;20302;-43
2022/03/17 04:12:31;;;;;;;43.65;30.95;;;;;;;4.11;100.00;102348.78;5053193;28;20178;-41
2022/03/17 04:14:56;;;;;;;47.47;31.60;;;;;;;4.18;100.00;102332.97;5053156;28;20195;-42
2022/03/17 04:17:21;;;;;;;42.78;31.08;;;;;;;4.18;100.00;102340.91;5053433;28;20187;-45
2022/03/17 04:19:47;;;;;;;46.13;31.52;;;;;;;4.24;100.00;102335.66;5053000;28;20236;-41
2022/03/17 04:22:12;;;;;;;44.30;31.45;;;;;;;4.24;100.00;102338.31;5052494;28;20176;-40
2022/03/17 04:24:38;;;;;;;45.72;32.33;;;;;;;4.25;100.00;102340.13;5047878;28;20191;-44
2022/03/17 04:27:06;;;;;;;41.60;31.15;;;;;;;4.29;100.00;102342.81;5052453;28;20298;-43
2022/03/17 04:29:31;;;;;;;44.85;32.22;;;;;;;4.29;100.00;102333.97;5051232;28;20171;-43
2022/03/17 04:31:57;;;;;;;44.90;31.80;;;;;;;4.35;100.00;102331.38;5052694;28;20178;-40
2022/03/17 04:34:22;;;;;;;40.22;29.70;;;;;;;4.38;100.00;102314.63;5040884;28;20266;-42
2022/03/17 04:36:48;;;;;;;42.53;32.97;;;;;;;4.41;100.00;102322.59;5052707;28;20610;-41
2022/03/17 04:39:13;;;;;;;43.15;31.67;;;;;;;4.44;100.00;102312.91;5051603;28;20171;-42
2022/03/17 04:41:39;;;;;;;46.35;32.40;;;;;;;4.48;100.00;102314.75;5052795;28;20554;-43
2022/03/17 04:44:06;;;;;;;45.50;33.03;;;;;;;4.54;100.00;102309.47;5052493;28;20183;-39
2022/03/17 04:46:32;;;;;;;44.67;32.30;;;;;;;4.52;100.00;102318.28;5052431;28;20171;-42
2022/03/17 04:48:59;;;;;;;42.03;32.05;;;;;;;4.56;100.00;102309.50;5052142;28;20179;-42
2022/03/17 04:51:24;;;;;;;45.05;31.73;;;;;;;4.56;100.00;102290.91;5051711;28;20699;-43
2022/03/17 04:53:49;;;;;;;42.35;31.60;;;;;;;4.54;100.00;102300.63;5052231;28;20195;-40
2022/03/17 04:56:17;;;;;;;47.40;33.75;;;;;;;4.58;100.00;102296.25;5052364;28;20310;-45
2022/03/17 04:58:44;;;;;;;44.10;32.28;;;;;;;4.62;99.88;102295.41;5052055;28;20160;-45
2022/03/17 05:01:11;;;;;;;41.78;32.53;;;;;;;4.61;100.00;102298.91;5050969;28;20176;-43
2022/03/17 05:03:37;;;;;;;45.13;33.88;;;;;;;4.65;99.71;102290.13;5051414;28;20253;-41
2022/03/17 05:06:04;;;;;;;44.55;32.83;;;;;;;4.71;99.25;102287.53;5052106;28;20174;-42
2022/03/17 05:08:33;;;;;;;43.53;33.35;;;;;;;4.72;98.86;102291.94;5052035;28;20199;-43
2022/03/17 05:10:58;;;;;;;41.75;32.17;;;;;;;4.74;98.80;102277.84;5050705;28;20171;-44
2022/03/17 05:13:24;;;;;;;44.00;31.40;;;;;;;4.79;98.21;102269.00;5051668;28;20557;-42
2022/03/17 05:15:51;;;;;;;42.40;31.17;;;;;;;4.75;97.98;102258.38;5050320;28;20602;-40
2022/03/17 05:18:17;;;;;;;43.60;32.33;;;;;;;4.79;97.88;102250.41;5051951;28;20163;-41
2022/03/17 05:20:42;;;;;;;43.60;32.63;;;;;;;4.83;97.81;102247.81;5051624;28;20220;-40
2022/03/17 05:23:10;;;;;;;42.42;32.20;;;;;;;4.88;96.94;102240.78;5050805;28;20191;-40
2022/03/17 05:25:36;;;;;;;41.55;31.77;;;;;;;4.95;96.51;102239.94;5051404;28;20179;-41
2022/03/17 05:28:02;;;;;;;44.45;33.15;;;;;;;4.97;96.27;102220.47;5051237;28;20207;-41
2022/03/17 05:30:28;;;;;;;44.58;33.95;;;;;;;5.00;95.63;102236.44;5051507;28;20674;-41
2022/03/17 05:32:54;;;;;;;44.95;33.90;;;;;;;5.08;95.03;102229.41;5050798;28;20659;-44
2022/03/17 05:35:20;;;;;;;46.30;34.03;;;;;;;5.10;94.45;102236.50;5051007;28;20167;-42
2022/03/17 05:37:45;;;;;;;42.95;32.55;;;;;;;5.05;94.44;102232.94;5051337;28;20247;-41
2022/03/17 05:40:17;;;;;;;43.95;33.30;;;;;;;5.07;94.58;102224.97;5050731;28;20175;-42
2022/03/17 05:42:45;;;;;;;41.90;33.03;;;;;;;5.13;93.87;102235.63;5049445;28;20221;-44
2022/03/17 05:45:11;;;;;;;42.28;32.65;;;;;;;5.17;93.34;102229.47;5050967;28;20198;-42
2022/03/17 05:47:41;;;;;;;47.25;34.58;;;;;;;5.17;93.59;102221.50;5050526;28;20687;-44
2022/03/17 05:50:13;;;;;;;44.35;33.00;;;;;;;5.20;93.09;102223.28;5051479;28;20178;-41
2022/03/17 05:52:40;;;;;;;44.35;33.55;;;;;;;5.19;93.01;102227.72;5050418;28;20169;-41
2022/03/17 05:55:12;;;;;;;41.60;32.20;;;;;;;5.20;92.84;102234.78;5051034;28;20538;-41
2022/03/17 05:57:39;;;;;;;43.95;32.65;;;;;;;5.20;92.58;102232.13;5050853;28;20216;-43
2022/03/17 06:00:07;;;;;;;44.60;33.45;;;;;;;5.29;91.93;102232.22;5050823;28;20163;-42
2022/03/17 06:02:34;;;;;;;43.58;32.47;;;;;;;5.31;91.32;102233.13;5050576;28;20736;-43
2022/03/17 06:04:59;;;;;;;43.67;33.35;;;;;;;5.32;91.10;102239.31;5050295;28;20167;-43
2022/03/17 06:07:25;;;;;;;42.67;32.80;;;;;;;5.45;90.31;102229.66;5050389;28;20219;-40
2022/03/17 06:09:50;;;;;;;43.60;32.95;;;;;;;5.41;90.34;102226.06;5050411;28;20603;-45
2022/03/17 06:12:15;;;;;;;42.00;32.65;;;;;;;5.35;90.28;102237.53;5049673;28;20179;-44
2022/03/17 06:14:42;;;;;;;42.95;33.20;;;;;;;5.44;90.53;102239.38;5050102;28;20192;-45
2022/03/17 06:17:07;;;;;;;43.42;33.97;;;;;;;5.42;90.16;102256.19;5049714;28;20179;-44
2022/03/17 06:19:32;;;;;;;46.45;33.80;;;;;;;5.46;89.65;102240.25;5050141;28;20175;-43
2022/03/17 06:21:58;;;;;;;43.45;32.33;;;;;;;5.47;89.58;102243.84;5050103;28;20244;-44
2022/03/17 06:24:25;;;;;;;44.60;33.45;;;;;;;5.45;89.95;102238.50;5049849;28;20349;-44
2022/03/17 06:26:50;;;;;;;45.65;33.78;;;;;;;5.44;89.69;102227.84;5050121;28;20184;-43
2022/03/17 06:29:16;;;;;;;44.28;34.80;;;;;;;5.46;89.86;102223.44;5049778;28;20537;-44
2022/03/17 06:31:41;;;;;;;44.03;33.33;;;;;;;5.45;89.95;102234.97;5050033;28;20197;-45
2022/03/17 06:34:07;;;;;;;47.72;34.42;;;;;;;5.48;89.54;102232.31;5049534;28;20198;-44
2022/03/17 06:36:32;;;;;;;48.47;35.00;;;;;;;5.52;89.14;102234.09;5050464;28;20176;-44
2022/03/17 06:38:58;;;;;;;44.60;33.97;;;;;;;5.53;89.03;102219.91;5050977;28;20680;-41
2022/03/17 06:41:23;;;;;;;42.30;33.78;;;;;;;5.52;89.02;102229.66;5050056;28;20224;-43
2022/03/17 06:43:48;;;;;;;42.35;33.42;;;;;;;5.53;88.95;102230.56;5050042;28;20218;-43
2022/03/17 06:46:14;;;;;;;44.72;34.78;;;;;;;5.57;88.64;102237.66;5050216;28;20156;-41
2022/03/17 06:48:39;;;;;;;43.88;34.92;;;;;;;5.61;88.70;102225.28;5050067;28;20203;-42
2022/03/17 06:51:06;;;;;;;45.53;33.42;;;;;;;5.60;88.17;102220.84;5050479;28;20166;-43
2022/03/17 06:53:32;;;;;;;43.17;34.47;;;;;;;5.61;88.43;102226.16;5049562;28;20192;-42
2022/03/17 06:55:57;;;;;;;42.30;34.25;;;;;;;5.64;87.97;102218.22;5050372;28;20180;-41
2022/03/17 06:58:23;;;;;;;42.85;34.42;;;;;;;5.62;88.02;102225.31;5050127;28;20178;-42
2022/03/17 07:00:48;;;;;;;39.67;33.28;;;;;;;5.69;87.70;102226.22;5050081;28;20179;-43
2022/03/17 07:03:13;;;;;;;45.58;33.65;;;;;;;5.75;87.01;102220.91;5049618;28;20187;-45
2022/03/17 07:05:39;;;;;;;43.58;34.17;;;;;;;5.76;86.65;102207.63;5049287;28;20175;-41
2022/03/17 07:08:05;;;;;;;47.13;34.72;;;;;;;5.82;86.37;102213.88;5049782;28;20278;-41
2022/03/17 07:10:30;;;;;;;38.70;32.70;;;;;;;5.80;86.42;102205.00;5049106;28;20165;-43
2022/03/17 07:12:56;;;;;;;43.05;34.35;;;;;;;5.87;86.26;102201.47;5049036;28;20286;-42
2022/03/17 07:15:21;;;;;;;41.95;33.90;;;;;;;5.96;85.29;102194.41;5050089;28;20212;-42
2022/03/17 07:17:46;;;;;;;39.75;33.58;;;;;;;5.94;84.81;102204.16;5049293;28;20182;-43
2022/03/17 07:20:14;;;;;;;44.30;35.08;;;;;;;5.95;85.03;102213.94;5049714;28;20183;-42
2022/03/17 07:22:42;;;;;;;43.67;34.40;;;;;;;5.94;84.88;102206.81;5049708;28;20171;-42
2022/03/17 07:25:09;;;;;;;46.83;34.50;;;;;;;6.05;84.70;102201.53;5049972;28;20668;-42
2022/03/17 07:27:43;;;;;;;44.95;34.28;;;;;;;6.04;84.48;102213.06;5049920;28;20203;-41
2022/03/17 07:30:22;;;;;;;43.95;35.67;;;;;;;6.08;84.04;102213.94;5049815;28;20586;-42
2022/03/17 07:32:50;;;;;;;44.63;34.95;;;;;;;6.12;83.97;102211.34;5049570;28;20186;-43
2022/03/17 07:35:16;;;;;;;43.55;36.35;;;;;;;6.21;83.70;102212.22;5052748;28;20178;-42
2022/03/17 07:37:42;;;;;;;44.72;35.33;;;;;;;6.22;83.48;102214.00;5053994;28;20156;-44
2022/03/17 07:40:08;;;;;;;42.80;35.47;;;;;;;6.25;83.58;102225.53;5053941;28;20259;-43
2022/03/17 07:42:35;;;;;;;46.22;36.92;;;;;;;6.27;83.62;102221.09;5068330;28;20266;-43
2022/03/17 07:45:19;;;;;;;46.22;35.85;;;;;;;6.31;83.59;102224.66;5053825;28;20232;-43
2022/03/17 07:48:03;;;;;;;43.55;36.35;;;;;;;6.31;83.65;102222.00;5053211;28;20634;-44
2022/03/17 07:50:29;;;;;;;44.30;36.72;;;;;;;6.28;83.79;102214.03;5053424;28;20175;-42
2022/03/17 07:52:54;;;;;;;44.53;36.85;;;;;;;6.29;84.45;102216.66;5068194;28;20249;-43
2022/03/17 07:55:20;;;;;;;47.05;36.17;;;;;;;6.36;83.73;102222.88;5053388;28;20826;-43
2022/03/17 07:57:45;;;;;;;45.15;37.17;;;;;;;6.38;83.84;102218.44;5052309;28;20250;-43
2022/03/17 08:00:11;;;;;;;46.50;38.10;;;;;;;6.36;83.83;102226.47;5053020;28;20178;-42
2022/03/17 08:02:41;;;;;;;44.33;36.60;;;;;;;6.39;83.97;102218.47;5053395;28;20368;-43
2022/03/17 08:05:08;;;;;;;46.35;37.63;;;;;;;6.39;84.23;102214.94;5053615;28;20194;-43
2022/03/17 08:07:34;;;;;;;46.55;37.08;;;;;;;6.39;84.05;102215.81;5053069;28;20210;-43
2022/03/17 08:09:59;;;;;;;45.20;37.63;;;;;;;6.42;84.29;102227.34;5053170;28;20179;-43
2022/03/17 08:12:26;;;;;;;49.63;38.92;;;;;;;6.41;84.27;102218.47;5052552;28;20273;-43
2022/03/17 08:14:53;;;;;;;49.38;37.95;;;;;;;6.44;84.73;102215.81;5052848;28;20194;-40
2022/03/17 08:17:19;;;;;;;48.35;37.75;;;;;;;6.42;84.60;102219.34;5052696;28;20160;-41
2022/03/17 08:19:44;;;;;;;48.22;37.88;;;;;;;6.42;84.73;102220.25;5048650;28;20194;-43
2022/03/17 08:22:10;;;;;;;47.47;37.92;;;;;;;6.50;84.72;102228.25;5048881;28;20200;-46
2022/03/17 08:24:35;;;;;;;48.20;38.22;;;;;;;6.48;84.73;102236.22;5052011;28;20206;-48
2022/03/17 08:27:02;;;;;;;46.40;36.47;;;;;;;6.51;84.62;102230.00;5052099;28;20195;-47
2022/03/17 08:29:29;;;;;;;46.15;37.92;;;;;;;6.49;84.81;102234.44;5051912;28;20225;-45
2022/03/17 08:31:54;;;;;;;46.50;37.88;;;;;;;6.51;84.58;102225.56;5052022;28;20195;-46
2022/03/17 08:34:20;;;;;;;49.00;39.05;;;;;;;6.50;84.74;102226.47;5052413;28;20239;-42
2022/03/17 08:36:46;;;;;;;50.65;38.58;;;;;;;6.56;84.70;102226.47;5052544;28;20183;-41
2022/03/17 08:39:12;;;;;;;46.05;36.97;;;;;;;6.56;84.36;102239.78;5051981;28;20179;-44
2022/03/17 08:41:38;;;;;;;45.72;38.38;;;;;;;6.62;84.38;102230.03;5052358;28;20167;-44
2022/03/17 08:44:03;;;;;;;50.50;38.85;;;;;;;6.66;83.89;102226.47;5052560;28;20210;-43
2022/03/17 08:49:19;;;;;;;44.75;38.35;;;;;;;6.68;84.23;102228.25;5052391;28;20270;-44
2022/03/17 08:51:46;;;;;;;48.97;38.92;;;;;;;6.73;84.04;102229.13;5052166;28;20184;-42
2022/03/17 08:54:12;;;;;;;48.15;39.15;;;;;;;6.72;84.16;102235.34;5050707;28;20194;-43
2022/03/17 08:56:38;;;;;;;47.97;38.28;;;;;;;6.71;84.02;102241.59;5052348;28;20171;-42
2022/03/17 08:59:05;;;;;;;49.22;39.17;;;;;;;6.73;83.83;102238.91;5052075;28;20206;-41
2022/03/17 09:01:31;;;;;;;50.25;38.28;;;;;;;6.73;84.25;102238.91;5051480;28;20794;-45
2022/03/17 09:03:57;;;;;;;46.97;38.38;;;;;;;6.73;83.86;102236.25;5051233;28;20206;-44
2022/03/17 09:06:22;;;;;;;47.67;37.83;;;;;;;6.73;84.43;102241.56;5051782;28;20626;-43
2022/03/17 09:08:48;;;;;;;49.15;38.80;;;;;;;6.74;83.96;102243.38;5052114;28;20218;-45
2022/03/17 09:11:14;;;;;;;48.03;38.70;;;;;;;6.76;84.29;102236.25;5052564;28;20624;-42
2022/03/17 09:13:40;;;;;;;44.75;36.70;;;;;;;6.74;84.22;102249.56;5051179;28;20274;-48
2022/03/17 09:16:06;;;;;;;47.58;38.72;;;;;;;6.73;84.21;102238.91;5052102;28;20774;-48
2022/03/17 09:18:32;;;;;;;47.30;38.53;;;;;;;6.75;84.20;102245.13;5051522;28;20163;-43
2022/03/17 09:21:00;;;;;;;45.13;38.13;;;;;;;6.75;84.62;102234.47;5050906;28;20712;-44
2022/03/17 09:23:26;;;;;;;49.08;38.33;;;;;;;6.76;84.33;102244.25;5050882;28;20192;-44
2022/03/17 09:25:52;;;;;;;48.17;39.08;;;;;;;6.78;84.12;102245.16;5051493;28;20171;-44
2022/03/17 09:28:17;;;;;;;51.00;38.83;;;;;;;6.77;84.61;102268.19;5051496;28;20301;-43
2022/03/17 09:30:43;;;;;;;50.17;39.22;;;;;;;6.83;84.45;102270.00;5051547;28;20206;-43
2022/03/17 09:33:09;;;;;;;46.70;38.85;;;;;;;6.84;84.50;102261.09;5051027;28;20203;-49
2022/03/17 09:35:34;;;;;;;49.47;37.92;;;;;;;6.85;84.68;102268.22;5051558;28;20171;-42
2022/03/17 09:38:01;;;;;;;46.40;39.17;;;;;;;6.87;84.64;102271.78;5051538;28;20175;-43
2022/03/17 09:40:26;;;;;;;45.22;38.05;;;;;;;6.89;84.30;102270.00;5051443;28;20651;-42
2022/03/17 09:43:18;;;;;;;46.17;38.35;;;;;;;6.90;85.42;102279.75;5050831;28;20266;-44
2022/03/17 09:45:40;;;;;;;48.05;39.83;;;;;;;6.94;87.13;102278.88;5051470;28;20183;-49
2022/03/17 09:48:08;;;;;;;47.28;40.00;;;;;;;6.91;88.40;102286.88;5050978;28;20775;-43
2022/03/17 09:50:34;;;;;;;49.88;40.10;;;;;;;6.79;88.85;102289.53;5051117;28;20163;-49
2022/03/17 09:53:00;;;;;;;51.67;40.63;;;;;;;6.66;90.62;102298.38;5050476;28;20684;-48
2022/03/17 09:55:25;;;;;;;51.55;41.40;;;;;;;6.65;91.51;102294.84;5050177;28;20183;-46
2022/03/17 09:57:50;;;;;;;53.30;42.92;;;;;;;6.55;92.70;102295.69;5050653;28;20168;-47
2022/03/17 10:00:17;;;;;;;50.50;42.20;;;;;;;6.50;93.56;102303.69;5049194;28;20171;-49
2022/03/17 10:02:43;;;;;;;52.70;42.53;;;;;;;6.43;94.70;102312.56;5050332;28;20179;-48
2022/03/17 10:05:11;;;;;;;49.97;42.47;;;;;;;6.45;96.03;102304.53;5050730;28;20174;-50
2022/03/17 10:07:39;;;;;;;55.30;43.25;;;;;;;6.43;97.34;102314.31;5050555;28;20289;-50
2022/03/17 10:10:05;;;;;;;53.15;43.55;;;;;;;6.35;98.23;102314.28;5050854;28;20179;-48
2022/03/17 10:12:31;;;;;;;56.63;44.70;;;;;;;6.29;99.68;102317.81;5048378;28;20175;-49
2022/03/17 10:14:58;;;;;;;58.03;46.30;;;;;;;6.29;100.00;102317.81;5040208;28;20315;-49
2022/03/17 10:17:39;;;;;;;59.78;46.83;;;;;;;6.24;100.00;102330.22;5046802;28;20168;-45
2022/03/17 10:20:15;;;;;;;60.05;47.15;;;;;;;6.21;100.00;102330.22;5049972;28;20564;-47
2022/03/17 10:22:47;;;;;;;62.90;46.88;;;;;;;6.17;100.00;102341.75;5049433;28;20171;-44
2022/03/17 10:25:16;;;;;;;60.90;47.67;;;;;;;6.09;100.00;102333.69;5050540;28;20179;-46
2022/03/17 10:27:49;;;;;;;59.15;47.15;;;;;;;6.10;100.00;102334.59;5048892;28;20213;-44
2022/03/17 10:30:35;;;;;;;59.53;47.08;;;;;;;6.05;100.00;102337.22;5049996;28;20261;-50
2022/03/17 10:33:14;;;;;;;62.30;48.28;;;;;;;6.00;100.00;102339.00;5049474;28;20203;-42
2022/03/17 10:35:45;;;;;;;66.03;50.20;;;;;;;5.98;100.00;102338.97;5050261;28;20194;-44
2022/03/17 10:38:19;;;;;;;64.90;49.80;;;;;;;5.99;100.00;102345.16;5048868;28;20243;-43
2022/03/17 10:40:59;;;;;;;68.70;51.15;;;;;;;5.95;100.00;102351.38;5049969;28;20171;-44
2022/03/17 10:43:25;;;;;;;67.70;51.08;;;;;;;5.96;100.00;102350.50;5049526;28;20677;-44
2022/03/17 10:46:07;;;;;;;66.70;50.20;;;;;;;5.95;100.00;102364.69;5050066;28;20634;-44
2022/03/17 10:48:33;;;;;;;73.68;52.47;;;;;;;5.95;100.00;102356.72;5050080;28;20215;-44
2022/03/17 10:50:59;;;;;;;65.45;50.55;;;;;;;5.94;100.00;102378.81;5050020;28;20174;-45
2022/03/17 10:53:31;;;;;;;71.60;50.88;;;;;;;5.91;100.00;102374.38;5049710;28;20220;-45
2022/03/17 10:56:17;;;;;;;69.15;52.08;;;;;;;5.92;100.00;102389.44;5049935;28;20270;-43
2022/03/17 10:58:43;;;;;;;62.78;49.67;;;;;;;5.98;100.00;102392.19;5050179;28;20163;-45
2022/03/17 11:01:10;;;;;;;68.53;52.35;;;;;;;5.95;100.00;102391.28;5050475;28;20212;-44
2022/03/17 11:03:36;;;;;;;71.15;51.63;;;;;;;5.90;100.00;102401.88;5049251;28;20187;-45
2022/03/17 11:06:06;;;;;;;68.00;50.63;;;;;;;5.99;100.00;102401.03;5049983;28;20176;-44
2022/03/17 11:08:32;;;;;;;73.57;53.33;;;;;;;5.94;100.00;102402.75;5065640;28;20678;-44
2022/03/17 11:10:58;;;;;;;69.85;50.88;;;;;;;5.97;100.00;102413.47;5036199;28;20328;-45
2022/03/17 11:13:24;;;;;;;69.88;50.95;;;;;;;5.95;100.00;102410.78;5054286;28;20266;-44
2022/03/17 11:16:08;;;;;;;70.03;52.05;;;;;;;5.95;100.00;102415.22;5053939;28;20648;-45
2022/03/17 11:18:39;;;;;;;68.07;50.85;;;;;;;5.92;100.00;102420.47;5053943;28;20175;-43
2022/03/17 11:21:16;;;;;;;75.35;63.45;;;;;;;5.94;100.00;102426.69;5054152;28;20438;-46
2022/03/17 11:24:17;;;;;;;67.45;53.42;;;;;;;6.01;100.00;102425.88;5051363;28;20563;-44